sensor_id;sensor_type;location;lat;lon;timestamp;temperature;humidity
21540;DHT22;10931;52.164;5.518;2023-04-01T00:02:22;21.00;63.10
21540;DHT22;10931;52.164;5.518;2023-04-01T00:04:48;21.00;63.10
21540;DHT22;10931;52.164;5.518;2023-04-01T00:07:19;21.00;63.10
21540;DHT22;10931;52.164;5.518;2023-04-01T00:09:48;21.00;63.10
21540;DHT22;10931;52.164;5.518;2023-04-01T00:12:14;21.00;63.20
21540;DHT22;10931;52.164;5.518;2023-04-01T00:14:43;21.00;63.20
21540;DHT22;10931;52.164;5.518;2023-04-01T00:17:11;21.00;63.20
21540;DHT22;10931;52.164;5.518;2023-04-01T00:19:37;21.00;63.20
21540;DHT22;10931;52.164;5.518;2023-04-01T00:22:03;21.00;63.20
21540;DHT22;10931;52.164;5.518;2023-04-01T00:24:33;20.90;63.10
21540;DHT22;10931;52.164;5.518;2023-04-01T00:27:01;21.00;63.20
21540;DHT22;10931;52.164;5.518;2023-04-01T00:29:27;20.90;63.20
21540;DHT22;10931;52.164;5.518;2023-04-01T00:31:58;20.90;63.20
21540;DHT22;10931;52.164;5.518;2023-04-01T00:34:24;20.90;63.10
21540;DHT22;10931;52.164;5.518;2023-04-01T00:36:53;20.90;63.10
21540;DHT22;10931;52.164;5.518;2023-04-01T00:39:20;20.90;63.10
21540;DHT22;10931;52.164;5.518;2023-04-01T00:41:47;20.90;63.10
21540;DHT22;10931;52.164;5.518;2023-04-01T00:44:33;20.90;63.10
21540;DHT22;10931;52.164;5.518;2023-04-01T00:47:00;20.90;63.20
21540;DHT22;10931;52.164;5.518;2023-04-01T00:49:42;20.90;63.20
21540;DHT22;10931;52.164;5.518;2023-04-01T00:52:15;20.90;63.30
21540;DHT22;10931;52.164;5.518;2023-04-01T00:54:48;20.90;63.20
21540;DHT22;10931;52.164;5.518;2023-04-01T00:57:22;20.90;63.20
21540;DHT22;10931;52.164;5.518;2023-04-01T00:59:51;20.90;63.20
21540;DHT22;10931;52.164;5.518;2023-04-01T01:02:20;20.90;63.20
21540;DHT22;10931;52.164;5.518;2023-04-01T01:04:46;20.80;63.10
21540;DHT22;10931;52.164;5.518;2023-04-01T01:12:46;20.80;63.10
21540;DHT22;10931;52.164;5.518;2023-04-01T01:15:25;20.80;63.20
21540;DHT22;10931;52.164;5.518;2023-04-01T01:18:16;20.80;63.20
21540;DHT22;10931;52.164;5.518;2023-04-01T01:23:43;20.80;63.20
21540;DHT22;10931;52.164;5.518;2023-04-01T01:29:29;20.80;63.20
21540;DHT22;10931;52.164;5.518;2023-04-01T01:32:04;20.80;63.20
21540;DHT22;10931;52.164;5.518;2023-04-01T01:37:40;20.80;63.20
21540;DHT22;10931;52.164;5.518;2023-04-01T01:40:10;20.80;63.70
21540;DHT22;10931;52.164;5.518;2023-04-01T01:42:43;20.80;63.20
21540;DHT22;10931;52.164;5.518;2023-04-01T01:45:12;20.80;63.20
21540;DHT22;10931;52.164;5.518;2023-04-01T01:47:43;20.80;63.20
21540;DHT22;10931;52.164;5.518;2023-04-01T01:50:14;20.80;63.20
21540;DHT22;10931;52.164;5.518;2023-04-01T01:52:40;20.80;63.30
21540;DHT22;10931;52.164;5.518;2023-04-01T01:55:27;20.80;63.30
21540;DHT22;10931;52.164;5.518;2023-04-01T01:57:55;20.80;63.30
21540;DHT22;10931;52.164;5.518;2023-04-01T02:00:23;20.80;63.30
21540;DHT22;10931;52.164;5.518;2023-04-01T02:02:50;20.70;63.30
21540;DHT22;10931;52.164;5.518;2023-04-01T02:05:23;20.70;63.20
21540;DHT22;10931;52.164;5.518;2023-04-01T02:08:09;20.80;63.30
21540;DHT22;10931;52.164;5.518;2023-04-01T02:10:42;20.70;63.20
21540;DHT22;10931;52.164;5.518;2023-04-01T02:13:17;20.70;63.20
21540;DHT22;10931;52.164;5.518;2023-04-01T02:15:47;20.70;63.20
21540;DHT22;10931;52.164;5.518;2023-04-01T02:18:15;20.70;63.30
21540;DHT22;10931;52.164;5.518;2023-04-01T02:20:46;20.70;63.30
21540;DHT22;10931;52.164;5.518;2023-04-01T02:23:12;20.70;63.30
21540;DHT22;10931;52.164;5.518;2023-04-01T02:25:40;20.70;63.30
21540;DHT22;10931;52.164;5.518;2023-04-01T02:28:13;20.70;63.30
21540;DHT22;10931;52.164;5.518;2023-04-01T02:30:42;20.70;63.30
21540;DHT22;10931;52.164;5.518;2023-04-01T02:33:09;20.70;63.40
21540;DHT22;10931;52.164;5.518;2023-04-01T02:35:36;20.70;63.30
21540;DHT22;10931;52.164;5.518;2023-04-01T02:38:03;20.70;63.30
21540;DHT22;10931;52.164;5.518;2023-04-01T02:40:45;20.70;63.30
21540;DHT22;10931;52.164;5.518;2023-04-01T02:43:12;20.70;63.30
21540;DHT22;10931;52.164;5.518;2023-04-01T02:45:38;20.60;63.20
21540;DHT22;10931;52.164;5.518;2023-04-01T02:48:04;20.60;63.20
21540;DHT22;10931;52.164;5.518;2023-04-01T02:50:30;20.60;63.30
21540;DHT22;10931;52.164;5.518;2023-04-01T02:52:58;20.60;63.20
21540;DHT22;10931;52.164;5.518;2023-04-01T02:55:23;20.60;63.20
21540;DHT22;10931;52.164;5.518;2023-04-01T02:57:49;20.60;63.30
21540;DHT22;10931;52.164;5.518;2023-04-01T03:00:18;20.60;63.30
21540;DHT22;10931;52.164;5.518;2023-04-01T03:02:44;20.60;63.30
21540;DHT22;10931;52.164;5.518;2023-04-01T03:05:10;20.60;63.30
21540;DHT22;10931;52.164;5.518;2023-04-01T03:07:38;20.60;63.40
21540;DHT22;10931;52.164;5.518;2023-04-01T03:10:05;20.60;63.30
21540;DHT22;10931;52.164;5.518;2023-04-01T03:12:31;20.60;63.30
21540;DHT22;10931;52.164;5.518;2023-04-01T03:14:59;20.60;63.30
21540;DHT22;10931;52.164;5.518;2023-04-01T03:17:25;20.60;63.30
21540;DHT22;10931;52.164;5.518;2023-04-01T03:19:53;20.60;63.30
21540;DHT22;10931;52.164;5.518;2023-04-01T03:22:28;20.60;63.30
21540;DHT22;10931;52.164;5.518;2023-04-01T03:24:54;20.60;63.40
21540;DHT22;10931;52.164;5.518;2023-04-01T03:27:19;20.60;63.30
21540;DHT22;10931;52.164;5.518;2023-04-01T03:29:45;20.60;63.40
21540;DHT22;10931;52.164;5.518;2023-04-01T03:32:11;20.60;63.40
21540;DHT22;10931;52.164;5.518;2023-04-01T03:34:36;20.60;63.40
21540;DHT22;10931;52.164;5.518;2023-04-01T03:37:02;20.60;63.40
21540;DHT22;10931;52.164;5.518;2023-04-01T03:39:31;20.60;63.40
21540;DHT22;10931;52.164;5.518;2023-04-01T03:41:59;20.60;63.40
21540;DHT22;10931;52.164;5.518;2023-04-01T03:44:25;20.60;63.40
21540;DHT22;10931;52.164;5.518;2023-04-01T03:46:51;20.60;63.40
21540;DHT22;10931;52.164;5.518;2023-04-01T03:49:16;20.60;63.40
21540;DHT22;10931;52.164;5.518;2023-04-01T03:51:43;20.60;63.40
21540;DHT22;10931;52.164;5.518;2023-04-01T03:54:09;20.50;63.40
21540;DHT22;10931;52.164;5.518;2023-04-01T03:56:36;20.50;63.30
21540;DHT22;10931;52.164;5.518;2023-04-01T03:59:04;20.50;63.40
21540;DHT22;10931;52.164;5.518;2023-04-01T04:01:30;20.50;63.40
21540;DHT22;10931;52.164;5.518;2023-04-01T04:03:57;20.50;63.40
21540;DHT22;10931;52.164;5.518;2023-04-01T04:06:24;20.50;63.40
21540;DHT22;10931;52.164;5.518;2023-04-01T04:08:50;20.50;63.40
21540;DHT22;10931;52.164;5.518;2023-04-01T04:11:16;20.50;63.40
21540;DHT22;10931;52.164;5.518;2023-04-01T04:13:43;20.50;63.40
21540;DHT22;10931;52.164;5.518;2023-04-01T04:16:09;20.50;63.40
21540;DHT22;10931;52.164;5.518;2023-04-01T04:18:45;20.50;63.40
21540;DHT22;10931;52.164;5.518;2023-04-01T04:21:13;20.50;63.40
21540;DHT22;10931;52.164;5.518;2023-04-01T04:23:39;20.50;63.40
21540;DHT22;10931;52.164;5.518;2023-04-01T04:26:08;20.50;63.40
21540;DHT22;10931;52.164;5.518;2023-04-01T04:28:34;20.50;63.40
21540;DHT22;10931;52.164;5.518;2023-04-01T04:31:03;20.40;63.30
21540;DHT22;10931;52.164;5.518;2023-04-01T04:33:31;20.50;63.40
21540;DHT22;10931;52.164;5.518;2023-04-01T04:35:59;20.50;63.40
21540;DHT22;10931;52.164;5.518;2023-04-01T04:38:28;20.50;63.40
21540;DHT22;10931;52.164;5.518;2023-04-01T04:40:54;20.40;63.40
21540;DHT22;10931;52.164;5.518;2023-04-01T04:43:23;20.40;63.40
21540;DHT22;10931;52.164;5.518;2023-04-01T04:45:49;20.40;63.40
21540;DHT22;10931;52.164;5.518;2023-04-01T04:48:18;20.40;63.40
21540;DHT22;10931;52.164;5.518;2023-04-01T04:50:48;20.40;63.40
21540;DHT22;10931;52.164;5.518;2023-04-01T04:53:16;20.50;63.40
21540;DHT22;10931;52.164;5.518;2023-04-01T04:55:46;20.40;63.40
21540;DHT22;10931;52.164;5.518;2023-04-01T04:58:15;20.40;63.40
21540;DHT22;10931;52.164;5.518;2023-04-01T05:00:42;20.40;63.40
21540;DHT22;10931;52.164;5.518;2023-04-01T05:03:10;20.40;63.40
21540;DHT22;10931;52.164;5.518;2023-04-01T05:05:39;20.40;63.40
21540;DHT22;10931;52.164;5.518;2023-04-01T05:08:05;20.40;63.50
21540;DHT22;10931;52.164;5.518;2023-04-01T05:10:31;20.40;63.50
21540;DHT22;10931;52.164;5.518;2023-04-01T05:12:58;20.40;63.50
21540;DHT22;10931;52.164;5.518;2023-04-01T05:15:24;20.40;63.40
21540;DHT22;10931;52.164;5.518;2023-04-01T05:17:50;20.40;63.40
21540;DHT22;10931;52.164;5.518;2023-04-01T05:20:16;20.40;63.50
21540;DHT22;10931;52.164;5.518;2023-04-01T05:22:42;20.40;63.50
21540;DHT22;10931;52.164;5.518;2023-04-01T05:25:18;20.40;63.50
21540;DHT22;10931;52.164;5.518;2023-04-01T05:27:44;20.40;63.40
21540;DHT22;10931;52.164;5.518;2023-04-01T05:30:10;20.40;63.40
21540;DHT22;10931;52.164;5.518;2023-04-01T05:32:36;20.40;63.50
21540;DHT22;10931;52.164;5.518;2023-04-01T05:35:15;20.40;63.40
21540;DHT22;10931;52.164;5.518;2023-04-01T05:37:41;20.40;63.50
21540;DHT22;10931;52.164;5.518;2023-04-01T05:40:22;20.40;63.50
21540;DHT22;10931;52.164;5.518;2023-04-01T05:42:51;20.40;63.50
21540;DHT22;10931;52.164;5.518;2023-04-01T05:45:16;20.30;63.40
21540;DHT22;10931;52.164;5.518;2023-04-01T05:47:48;20.40;63.50
21540;DHT22;10931;52.164;5.518;2023-04-01T05:50:15;20.30;63.40
21540;DHT22;10931;52.164;5.518;2023-04-01T05:52:47;20.30;63.40
21540;DHT22;10931;52.164;5.518;2023-04-01T05:55:13;20.30;63.40
21540;DHT22;10931;52.164;5.518;2023-04-01T05:57:46;20.30;63.40
21540;DHT22;10931;52.164;5.518;2023-04-01T06:00:19;20.30;63.40
21540;DHT22;10931;52.164;5.518;2023-04-01T06:02:47;20.30;63.50
21540;DHT22;10931;52.164;5.518;2023-04-01T06:07:45;20.30;63.40
21540;DHT22;10931;52.164;5.518;2023-04-01T06:10:18;20.30;63.50
21540;DHT22;10931;52.164;5.518;2023-04-01T06:13:10;20.30;63.50
21540;DHT22;10931;52.164;5.518;2023-04-01T06:18:39;20.30;63.50
21540;DHT22;10931;52.164;5.518;2023-04-01T06:27:37;20.30;63.50
21540;DHT22;10931;52.164;5.518;2023-04-01T06:33:39;20.30;63.50
21540;DHT22;10931;52.164;5.518;2023-04-01T06:45:31;20.20;63.50
21540;DHT22;10931;52.164;5.518;2023-04-01T06:49:02;20.30;63.60
21540;DHT22;10931;52.164;5.518;2023-04-01T06:54:05;20.20;63.50
21540;DHT22;10931;52.164;5.518;2023-04-01T06:56:41;20.20;63.60
21540;DHT22;10931;52.164;5.518;2023-04-01T06:59:37;20.20;63.60
21540;DHT22;10931;52.164;5.518;2023-04-01T07:04:49;20.20;63.60
21540;DHT22;10931;52.164;5.518;2023-04-01T07:07:56;20.20;63.60
21540;DHT22;10931;52.164;5.518;2023-04-01T07:10:50;20.20;63.60
21540;DHT22;10931;52.164;5.518;2023-04-01T07:13:29;20.20;63.70
21540;DHT22;10931;52.164;5.518;2023-04-01T07:16:06;20.20;63.60
21540;DHT22;10931;52.164;5.518;2023-04-01T07:19:01;20.20;63.70
21540;DHT22;10931;52.164;5.518;2023-04-01T07:22:04;20.20;63.70
21540;DHT22;10931;52.164;5.518;2023-04-01T07:24:40;20.20;63.70
21540;DHT22;10931;52.164;5.518;2023-04-01T07:27:20;20.20;63.70
21540;DHT22;10931;52.164;5.518;2023-04-01T07:29:47;20.20;63.70
21540;DHT22;10931;52.164;5.518;2023-04-01T07:35:30;20.20;63.70
21540;DHT22;10931;52.164;5.518;2023-04-01T07:38:06;20.10;63.70
21540;DHT22;10931;52.164;5.518;2023-04-01T07:46:13;20.10;63.70
21540;DHT22;10931;52.164;5.518;2023-04-01T07:52:12;20.10;63.70
21540;DHT22;10931;52.164;5.518;2023-04-01T07:55:18;20.20;63.80
21540;DHT22;10931;52.164;5.518;2023-04-01T08:17:05;20.10;63.70
21540;DHT22;10931;52.164;5.518;2023-04-01T08:24:16;20.10;63.80
21540;DHT22;10931;52.164;5.518;2023-04-01T08:26:53;20.10;63.80
21540;DHT22;10931;52.164;5.518;2023-04-01T08:32:39;20.10;63.80
21540;DHT22;10931;52.164;5.518;2023-04-01T08:35:18;20.10;63.90
21540;DHT22;10931;52.164;5.518;2023-04-01T08:52:20;20.10;63.90
21540;DHT22;10931;52.164;5.518;2023-04-01T09:01:08;20.10;63.90
21540;DHT22;10931;52.164;5.518;2023-04-01T09:34:52;20.10;63.90
21540;DHT22;10931;52.164;5.518;2023-04-01T09:37:54;20.10;64.00
21540;DHT22;10931;52.164;5.518;2023-04-01T09:43:26;20.10;63.90
21540;DHT22;10931;52.164;5.518;2023-04-01T09:46:15;20.10;64.00
21540;DHT22;10931;52.164;5.518;2023-04-01T09:54:46;20.10;64.00
21540;DHT22;10931;52.164;5.518;2023-04-01T10:01:05;20.10;64.00
21540;DHT22;10931;52.164;5.518;2023-04-01T10:24:10;20.10;64.00
21540;DHT22;10931;52.164;5.518;2023-04-01T10:27:02;20.10;64.10
21540;DHT22;10931;52.164;5.518;2023-04-01T10:41:27;20.10;64.10
21540;DHT22;10931;52.164;5.518;2023-04-01T10:46:53;20.10;64.10
21540;DHT22;10931;52.164;5.518;2023-04-01T10:58:25;20.10;64.10
21540;DHT22;10931;52.164;5.518;2023-04-01T11:04:52;20.10;64.10
21540;DHT22;10931;52.164;5.518;2023-04-01T11:34:14;20.10;64.20
21540;DHT22;10931;52.164;5.518;2023-04-01T11:55:38;20.20;64.30
21540;DHT22;10931;52.164;5.518;2023-04-01T12:01:21;20.10;64.30
21540;DHT22;10931;52.164;5.518;2023-04-01T12:07:02;20.10;64.30
21540;DHT22;10931;52.164;5.518;2023-04-01T12:15:28;20.10;64.30
21540;DHT22;10931;52.164;5.518;2023-04-01T12:20:50;20.20;64.30
21540;DHT22;10931;52.164;5.518;2023-04-01T12:28:44;20.20;64.30
21540;DHT22;10931;52.164;5.518;2023-04-01T12:31:27;20.20;64.30
21540;DHT22;10931;52.164;5.518;2023-04-01T12:55:42;20.20;64.30
21540;DHT22;10931;52.164;5.518;2023-04-01T13:07:44;20.20;64.30
21540;DHT22;10931;52.164;5.518;2023-04-01T13:22:35;20.20;64.40
21540;DHT22;10931;52.164;5.518;2023-04-01T13:43:38;20.20;64.40
21540;DHT22;10931;52.164;5.518;2023-04-01T13:46:42;20.20;64.50
21540;DHT22;10931;52.164;5.518;2023-04-01T14:01:56;20.20;64.50
21540;DHT22;10931;52.164;5.518;2023-04-01T14:07:55;20.20;64.50
21540;DHT22;10931;52.164;5.518;2023-04-01T14:13:15;20.20;64.50
21540;DHT22;10931;52.164;5.518;2023-04-01T14:19:08;20.20;64.50
21540;DHT22;10931;52.164;5.518;2023-04-01T14:24:45;20.20;64.50
21540;DHT22;10931;52.164;5.518;2023-04-01T14:27:50;20.20;64.50
21540;DHT22;10931;52.164;5.518;2023-04-01T14:30:35;20.20;64.50
21540;DHT22;10931;52.164;5.518;2023-04-01T14:50:46;20.10;64.50
21540;DHT22;10931;52.164;5.518;2023-04-01T14:55:53;20.20;64.60
21540;DHT22;10931;52.164;5.518;2023-04-01T14:58:21;20.20;64.60
21540;DHT22;10931;52.164;5.518;2023-04-01T15:00:56;20.10;64.50
21540;DHT22;10931;52.164;5.518;2023-04-01T15:03:36;20.20;64.60
21540;DHT22;10931;52.164;5.518;2023-04-01T15:06:35;20.20;64.50
21540;DHT22;10931;52.164;5.518;2023-04-01T15:11:57;20.20;64.60
21540;DHT22;10931;52.164;5.518;2023-04-01T15:17:54;20.20;64.50
21540;DHT22;10931;52.164;5.518;2023-04-01T15:23:53;20.20;64.60
21540;DHT22;10931;52.164;5.518;2023-04-01T15:26:53;20.20;64.50
21540;DHT22;10931;52.164;5.518;2023-04-01T15:34:57;20.20;64.50
21540;DHT22;10931;52.164;5.518;2023-04-01T15:40:50;20.10;64.50
21540;DHT22;10931;52.164;5.518;2023-04-01T15:43:37;20.10;64.50
21540;DHT22;10931;52.164;5.518;2023-04-01T16:00:49;20.10;64.50
21540;DHT22;10931;52.164;5.518;2023-04-01T16:21:00;20.10;64.50
21540;DHT22;10931;52.164;5.518;2023-04-01T16:29:56;20.10;64.50
21540;DHT22;10931;52.164;5.518;2023-04-01T16:32:44;20.10;64.50
21540;DHT22;10931;52.164;5.518;2023-04-01T16:35:44;20.10;64.50
21540;DHT22;10931;52.164;5.518;2023-04-01T16:41:19;20.10;64.50
21540;DHT22;10931;52.164;5.518;2023-04-01T16:43:55;20.10;64.50
21540;DHT22;10931;52.164;5.518;2023-04-01T16:46:54;20.10;64.50
21540;DHT22;10931;52.164;5.518;2023-04-01T16:49:46;20.10;64.50
21540;DHT22;10931;52.164;5.518;2023-04-01T16:52:16;20.10;64.50
21540;DHT22;10931;52.164;5.518;2023-04-01T16:54:53;20.10;64.50
21540;DHT22;10931;52.164;5.518;2023-04-01T16:57:51;20.10;64.50
21540;DHT22;10931;52.164;5.518;2023-04-01T17:00:47;20.10;64.50
21540;DHT22;10931;52.164;5.518;2023-04-01T17:03:36;20.10;64.50
21540;DHT22;10931;52.164;5.518;2023-04-01T17:17:25;20.10;64.50
21540;DHT22;10931;52.164;5.518;2023-04-01T17:28:32;20.10;64.40
21540;DHT22;10931;52.164;5.518;2023-04-01T17:34:35;20.00;64.30
21540;DHT22;10931;52.164;5.518;2023-04-01T17:37:36;20.00;64.30
21540;DHT22;10931;52.164;5.518;2023-04-01T17:46:24;20.00;64.40
21540;DHT22;10931;52.164;5.518;2023-04-01T17:51:45;20.00;64.30
21540;DHT22;10931;52.164;5.518;2023-04-01T17:54:39;20.00;64.30
21540;DHT22;10931;52.164;5.518;2023-04-01T18:05:26;19.90;64.30
21540;DHT22;10931;52.164;5.518;2023-04-01T18:10:56;19.90;64.30
21540;DHT22;10931;52.164;5.518;2023-04-01T18:17:09;19.90;64.30
21540;DHT22;10931;52.164;5.518;2023-04-01T18:23:35;19.90;64.20
21540;DHT22;10931;52.164;5.518;2023-04-01T18:26:18;19.90;64.20
21540;DHT22;10931;52.164;5.518;2023-04-01T18:31:40;19.90;64.20
21540;DHT22;10931;52.164;5.518;2023-04-01T18:40:16;19.90;65.10
21540;DHT22;10931;52.164;5.518;2023-04-01T18:46:03;19.90;64.20
21540;DHT22;10931;52.164;5.518;2023-04-01T18:48:54;19.90;64.20
21540;DHT22;10931;52.164;5.518;2023-04-01T18:51:49;19.90;64.20
21540;DHT22;10931;52.164;5.518;2023-04-01T18:54:30;19.90;64.30
21540;DHT22;10931;52.164;5.518;2023-04-01T19:00:32;19.90;64.20
21540;DHT22;10931;52.164;5.518;2023-04-01T19:06:08;19.90;64.20
21540;DHT22;10931;52.164;5.518;2023-04-01T19:08:41;19.90;64.00
21540;DHT22;10931;52.164;5.518;2023-04-01T19:20:37;19.90;64.20
21540;DHT22;10931;52.164;5.518;2023-04-01T19:26:39;19.90;64.20
21540;DHT22;10931;52.164;5.518;2023-04-01T19:29:31;19.80;64.20
21540;DHT22;10931;52.164;5.518;2023-04-01T19:38:31;19.80;64.20
21540;DHT22;10931;52.164;5.518;2023-04-01T19:44:24;19.80;64.10
21540;DHT22;10931;52.164;5.518;2023-04-01T19:50:33;19.80;64.10
21540;DHT22;10931;52.164;5.518;2023-04-01T19:53:21;19.80;64.00
21540;DHT22;10931;52.164;5.518;2023-04-01T19:56:04;19.80;64.00
21540;DHT22;10931;52.164;5.518;2023-04-01T20:01:35;19.80;64.00
21540;DHT22;10931;52.164;5.518;2023-04-01T20:04:26;19.80;64.00
21540;DHT22;10931;52.164;5.518;2023-04-01T20:07:04;19.80;64.00
21540;DHT22;10931;52.164;5.518;2023-04-01T20:09:58;19.80;64.00
21540;DHT22;10931;52.164;5.518;2023-04-01T20:15:41;19.80;64.00
21540;DHT22;10931;52.164;5.518;2023-04-01T20:18:33;19.80;64.00
21540;DHT22;10931;52.164;5.518;2023-04-01T20:21:20;19.80;64.00
21540;DHT22;10931;52.164;5.518;2023-04-01T20:24:04;19.80;64.00
21540;DHT22;10931;52.164;5.518;2023-04-01T20:26:39;19.80;64.00
21540;DHT22;10931;52.164;5.518;2023-04-01T20:32:50;19.80;64.00
21540;DHT22;10931;52.164;5.518;2023-04-01T20:55:30;19.70;63.90
21540;DHT22;10931;52.164;5.518;2023-04-01T21:00:55;19.70;64.80
21540;DHT22;10931;52.164;5.518;2023-04-01T21:23:11;19.60;63.80
21540;DHT22;10931;52.164;5.518;2023-04-01T21:28:34;19.70;63.80
21540;DHT22;10931;52.164;5.518;2023-04-01T21:45:21;19.70;63.70
21540;DHT22;10931;52.164;5.518;2023-04-01T22:05:07;19.60;63.70
21540;DHT22;10931;52.164;5.518;2023-04-01T22:08:00;19.60;63.70
21540;DHT22;10931;52.164;5.518;2023-04-01T22:10:53;19.60;63.70
21540;DHT22;10931;52.164;5.518;2023-04-01T22:13:39;19.60;63.70
21540;DHT22;10931;52.164;5.518;2023-04-01T22:21:13;19.60;63.70
21540;DHT22;10931;52.164;5.518;2023-04-01T22:24:27;19.50;63.60
21540;DHT22;10931;52.164;5.518;2023-04-01T22:29:38;19.50;63.60
21540;DHT22;10931;52.164;5.518;2023-04-01T22:40:45;19.60;63.60
21540;DHT22;10931;52.164;5.518;2023-04-01T22:43:19;19.50;63.50
21540;DHT22;10931;52.164;5.518;2023-04-01T22:51:18;19.50;63.50
21540;DHT22;10931;52.164;5.518;2023-04-01T22:59:35;19.50;63.50
21540;DHT22;10931;52.164;5.518;2023-04-01T23:02:18;19.50;63.50
21540;DHT22;10931;52.164;5.518;2023-04-01T23:04:52;19.50;63.50
21540;DHT22;10931;52.164;5.518;2023-04-01T23:10:41;19.50;63.50
21540;DHT22;10931;52.164;5.518;2023-04-01T23:13:15;19.50;63.50
21540;DHT22;10931;52.164;5.518;2023-04-01T23:15:42;19.50;63.50
21540;DHT22;10931;52.164;5.518;2023-04-01T23:21:15;19.50;63.50
21540;DHT22;10931;52.164;5.518;2023-04-01T23:24:05;19.50;63.50
21540;DHT22;10931;52.164;5.518;2023-04-01T23:29:21;19.50;63.40
21540;DHT22;10931;52.164;5.518;2023-04-01T23:31:56;19.50;63.40
21540;DHT22;10931;52.164;5.518;2023-04-01T23:34:25;19.50;63.40
21540;DHT22;10931;52.164;5.518;2023-04-01T23:36:53;19.50;63.50
21540;DHT22;10931;52.164;5.518;2023-04-01T23:39:24;19.50;63.40
21540;DHT22;10931;52.164;5.518;2023-04-01T23:41:53;19.50;63.40
21540;DHT22;10931;52.164;5.518;2023-04-01T23:44:20;19.50;63.40
21540;DHT22;10931;52.164;5.518;2023-04-01T23:46:47;19.40;63.40
21540;DHT22;10931;52.164;5.518;2023-04-01T23:49:19;19.50;63.40
21540;DHT22;10931;52.164;5.518;2023-04-01T23:54:51;19.40;63.40
21540;DHT22;10931;52.164;5.518;2023-04-01T23:57:31;19.50;63.40
